Time;durP1;ratioP1;P1;durP2;ratioP2;P2;SDS_P1;SDS_P2;PMS_P1;PMS_P2;Temp;Humidity;BMP_temperature;BMP_pressure;BME280_temperature;BME280_humidity;BME280_pressure;Samples;Min_cycle;Max_cycle;Signal;HPM_P1;HPM_P2
2024/01/29 00:01:03;;;;;;;2.28;1.65;;;10.00;99.90;;;;;;5001686;28;20054;-78
2024/01/29 00:03:30;;;;;;;2.53;1.92;;;10.00;99.90;;;;;;4986083;28;20057;-79
2024/01/29 00:05:58;;;;;;;2.10;1.60;;;9.90;99.90;;;;;;4969068;28;20800;-78
2024/01/29 00:08:25;;;;;;;1.83;1.40;;;9.90;99.90;;;;;;4983743;28;20081;-79
2024/01/29 00:10:52;;;;;;;2.20;1.67;;;9.90;99.90;;;;;;4970418;28;20116;-79
2024/01/29 00:13:20;;;;;;;2.40;1.55;;;10.00;1.00;;;;;;4979926;28;20047;-79
2024/01/29 00:15:46;;;;;;;1.90;1.50;;;10.00;1.00;;;;;;5002109;28;20046;-79
2024/01/29 00:18:13;;;;;;;1.65;1.25;;;10.00;1.00;;;;;;5001993;28;20373;-79
2024/01/29 00:20:40;;;;;;;1.75;1.30;;;10.10;99.90;;;;;;5018119;28;20056;-80
2024/01/29 00:23:07;;;;;;;2.33;1.50;;;10.10;99.90;;;;;;5001632;28;20082;-79
2024/01/29 00:25:34;;;;;;;2.78;1.70;;;10.10;99.90;;;;;;4969561;28;20081;-79
2024/01/29 00:28:01;;;;;;;2.35;1.52;;;10.10;99.90;;;;;;4985846;28;20049;-78
2024/01/29 00:30:28;;;;;;;1.50;1.25;;;10.10;33.20;;;;;;4991632;28;20072;-81
2024/01/29 00:32:55;;;;;;;1.63;1.10;;;10.10;1.00;;;;;;4985452;28;20133;-79
2024/01/29 00:35:22;;;;;;;2.15;1.13;;;10.10;1.00;;;;;;5002214;28;20064;-79
2024/01/29 00:37:51;;;;;;;1.50;0.98;;;10.10;99.90;;;;;;5002381;28;20054;-79
2024/01/29 00:40:19;;;;;;;2.28;1.45;;;10.10;99.90;;;;;;5002206;28;20076;-79
2024/01/29 00:42:46;;;;;;;1.67;1.23;;;10.10;99.90;;;;;;5002381;28;20046;-78
2024/01/29 00:45:13;;;;;;;1.42;0.80;;;10.10;99.90;;;;;;4986013;28;20600;-79
2024/01/29 00:47:39;;;;;;;1.65;1.20;;;10.10;99.90;;;;;;4982477;28;20050;-79
2024/01/29 00:50:08;;;;;;;1.42;1.00;;;10.00;99.90;;;;;;4966473;28;20054;-78
2024/01/29 00:52:35;;;;;;;1.58;1.13;;;10.00;99.90;;;;;;4996929;28;20050;-79
2024/01/29 00:55:02;;;;;;;1.55;1.15;;;10.00;99.90;;;;;;4982894;28;20061;-79
2024/01/29 00:57:29;;;;;;;1.73;1.13;;;10.00;99.90;;;;;;5000069;28;20068;-79
2024/01/29 00:59:56;;;;;;;1.35;1.00;;;10.00;99.90;;;;;;4986535;28;20149;-79
2024/01/29 01:02:23;;;;;;;1.60;1.05;;;10.00;1.00;;;;;;4969315;28;20476;-79
2024/01/29 01:04:50;;;;;;;1.60;1.20;;;10.00;1.00;;;;;;4976389;28;20050;-79
2024/01/29 01:07:17;;;;;;;1.70;1.02;;;10.00;1.00;;;;;;4983191;28;20053;-78
2024/01/29 01:09:44;;;;;;;2.47;1.40;;;10.00;99.90;;;;;;5017501;28;20053;-77
2024/01/29 01:12:11;;;;;;;1.90;1.10;;;10.00;1.00;;;;;;5001021;28;20085;-78
2024/01/29 01:14:37;;;;;;;1.67;1.23;;;10.00;99.90;;;;;;5017820;28;20726;-78
2024/01/29 01:17:04;;;;;;;2.05;1.30;;;10.00;1.00;;;;;;4996354;28;20429;-78
2024/01/29 01:19:31;;;;;;;1.65;1.13;;;10.00;1.00;;;;;;4982350;28;20669;-79
2024/01/29 01:21:58;;;;;;;1.85;1.33;;;10.10;1.00;;;;;;4989613;28;20058;-79
2024/01/29 01:24:25;;;;;;;1.42;1.00;;;10.10;1.00;;;;;;5003376;28;20038;-78
2024/01/29 01:26:52;;;;;;;1.85;1.38;;;10.10;1.00;;;;;;5013256;28;20081;-79
2024/01/29 01:29:20;;;;;;;1.95;1.40;;;10.20;99.90;;;;;;5001700;28;20099;-79
2024/01/29 01:31:47;;;;;;;2.45;1.50;;;10.20;99.90;;;;;;4984291;28;20451;-79
2024/01/29 01:34:14;;;;;;;1.23;1.08;;;10.20;99.90;;;;;;4965813;28;20118;-79
2024/01/29 01:36:41;;;;;;;1.63;1.23;;;10.20;99.90;;;;;;4983025;28;20319;-79
2024/01/29 01:39:08;;;;;;;2.35;1.58;;;10.20;99.90;;;;;;4981607;28;20085;-79
2024/01/29 01:41:35;;;;;;;1.55;1.20;;;10.20;1.00;;;;;;4982597;28;20469;-78
2024/01/29 01:44:02;;;;;;;2.03;1.15;;;10.20;1.00;;;;;;4977796;28;20049;-79
2024/01/29 01:46:29;;;;;;;2.03;1.25;;;10.20;1.00;;;;;;4987823;28;20058;-79
2024/01/29 01:48:56;;;;;;;1.90;1.58;;;10.20;1.00;;;;;;4983954;28;20124;-79
2024/01/29 01:51:23;;;;;;;1.98;1.35;;;10.20;1.00;;;;;;5001062;28;20057;-79
2024/01/29 01:53:54;;;;;;;1.50;1.17;;;10.30;1.00;;;;;;4983908;28;20150;-79
2024/01/29 01:56:21;;;;;;;3.08;1.52;;;10.30;9.50;;;;;;4984708;28;20078;-79
2024/01/29 01:58:48;;;;;;;2.92;1.70;;;10.30;99.90;;;;;;4994009;28;20054;-79
2024/01/29 02:01:15;;;;;;;2.10;1.63;;;10.30;99.90;;;;;;4989087;28;20053;-79
2024/01/29 02:03:43;;;;;;;2.92;2.20;;;10.40;99.90;;;;;;5016192;28;20129;-79
2024/01/29 02:06:10;;;;;;;2.15;1.58;;;10.40;99.90;;;;;;5012734;28;20139;-79
2024/01/29 02:08:38;;;;;;;2.58;1.92;;;10.50;99.90;;;;;;4982533;28;20081;-79
2024/01/29 02:11:13;;;;;;;3.17;2.10;;;10.50;15.10;;;;;;4991699;28;20052;-79
2024/01/29 02:13:41;;;;;;;2.58;1.90;;;10.50;3.50;;;;;;4980092;28;20062;-80
2024/01/29 02:16:08;;;;;;;3.25;2.25;;;10.50;39.10;;;;;;4999524;28;20053;-79
2024/01/29 02:18:35;;;;;;;3.78;2.55;;;10.50;99.90;;;;;;5016120;28;20141;-79
2024/01/29 02:21:03;;;;;;;4.05;2.70;;;10.60;99.90;;;;;;5013395;28;20050;-80
2024/01/29 02:23:31;;;;;;;2.70;2.22;;;10.60;99.90;;;;;;4979174;28;20050;-79
2024/01/29 02:25:57;;;;;;;3.15;2.35;;;10.60;99.90;;;;;;4989737;28;20084;-79
2024/01/29 02:28:26;;;;;;;2.95;2.55;;;10.60;99.90;;;;;;4988098;28;20062;-79
2024/01/29 02:30:53;;;;;;;3.15;2.40;;;10.60;99.90;;;;;;4985430;28;20045;-79
2024/01/29 02:33:21;;;;;;;3.00;2.13;;;10.70;99.90;;;;;;4992512;28;20076;-79
2024/01/29 02:35:48;;;;;;;2.45;1.83;;;10.70;99.90;;;;;;4991653;28;20554;-79
2024/01/29 02:38:15;;;;;;;2.13;1.45;;;10.60;95.80;;;;;;5000457;28;20056;-79
2024/01/29 02:40:42;;;;;;;2.63;1.88;;;10.60;70.00;;;;;;4986221;28;20173;-79
2024/01/29 02:43:09;;;;;;;2.50;1.73;;;10.60;99.90;;;;;;4962295;28;20104;-79
2024/01/29 02:45:36;;;;;;;3.10;2.50;;;10.60;99.90;;;;;;4981785;28;20677;-79
2024/01/29 02:48:04;;;;;;;2.60;1.80;;;10.60;99.90;;;;;;5002778;28;20052;-79
2024/01/29 02:50:32;;;;;;;2.35;1.77;;;10.60;99.90;;;;;;5004763;28;20050;-79
2024/01/29 02:52:59;;;;;;;3.53;2.17;;;10.60;99.90;;;;;;5001603;28;20484;-79
2024/01/29 02:55:26;;;;;;;2.38;2.08;;;10.60;1.00;;;;;;4970756;28;20104;-79
2024/01/29 02:57:53;;;;;;;3.13;2.30;;;10.60;21.40;;;;;;4987099;28;20054;-79
2024/01/29 03:00:20;;;;;;;3.63;2.88;;;10.60;99.90;;;;;;4971367;28;20057;-79
2024/01/29 03:02:47;;;;;;;3.17;2.70;;;10.60;99.90;;;;;;4968377;28;20054;-79
2024/01/29 03:05:15;;;;;;;2.70;2.15;;;10.60;99.90;;;;;;4971407;28;20108;-85
2024/01/29 03:07:42;;;;;;;2.90;2.22;;;10.60;1.00;;;;;;5001079;28;20904;-80
2024/01/29 03:10:09;;;;;;;3.50;2.78;;;10.60;1.00;;;;;;4989049;28;20146;-79
2024/01/29 03:12:35;;;;;;;3.65;2.85;;;10.50;93.40;;;;;;4999344;28;20061;-79
2024/01/29 03:15:03;;;;;;;4.00;3.15;;;10.50;99.90;;;;;;4989359;28;20395;-79
2024/01/29 03:17:32;;;;;;;3.83;2.78;;;10.50;99.90;;;;;;4998431;28;20141;-79
2024/01/29 03:19:59;;;;;;;4.00;2.47;;;10.50;99.90;;;;;;5002273;28;20601;-79
2024/01/29 03:22:27;;;;;;;3.45;2.40;;;10.40;99.90;;;;;;4983020;28;20564;-79
2024/01/29 03:24:53;;;;;;;5.15;3.33;;;10.40;1.00;;;;;;5000081;28;20145;-79
2024/01/29 03:27:20;;;;;;;3.33;2.80;;;10.40;38.50;;;;;;4982081;28;20081;-79
2024/01/29 03:29:47;;;;;;;4.22;3.30;;;10.30;99.90;;;;;;5002689;28;20116;-79
2024/01/29 03:32:14;;;;;;;3.72;2.35;;;10.30;99.90;;;;;;4988334;28;20400;-79
2024/01/29 03:34:42;;;;;;;3.35;2.70;;;10.30;99.90;;;;;;4984382;28;20133;-79
2024/01/29 03:37:10;;;;;;;3.50;2.78;;;10.30;99.90;;;;;;4969033;28;20070;-79
2024/01/29 03:39:38;;;;;;;4.30;2.80;;;10.30;99.90;;;;;;4987570;28;20053;-79
2024/01/29 03:42:05;;;;;;;3.92;2.53;;;10.20;99.90;;;;;;4975739;28;20064;-80
2024/01/29 03:44:32;;;;;;;3.28;2.35;;;10.20;99.90;;;;;;4964487;28;20447;-79
2024/01/29 03:46:59;;;;;;;3.33;2.28;;;10.20;99.90;;;;;;4987649;28;20684;-80
2024/01/29 03:49:25;;;;;;;3.00;2.10;;;10.20;1.00;;;;;;4998079;28;20148;-79
2024/01/29 03:51:52;;;;;;;3.22;2.03;;;10.20;1.00;;;;;;4985529;28;20194;-80
2024/01/29 03:54:19;;;;;;;2.70;1.90;;;10.30;42.40;;;;;;4985406;28;20085;-79
2024/01/29 03:56:48;;;;;;;3.72;2.60;;;10.30;99.90;;;;;;4960845;28;20054;-80
2024/01/29 03:59:15;;;;;;;2.05;1.85;;;10.30;99.90;;;;;;4989800;28;20068;-79
2024/01/29 04:01:42;;;;;;;3.13;2.35;;;10.30;99.90;;;;;;4987918;28;20049;-79
2024/01/29 04:04:10;;;;;;;2.05;1.58;;;10.30;99.90;;;;;;4996355;28;20053;-78
2024/01/29 04:06:39;;;;;;;2.70;2.05;;;10.40;99.90;;;;;;4991196;28;20507;-79
2024/01/29 04:09:09;;;;;;;2.35;1.85;;;10.40;1.00;;;;;;4974507;28;20050;-78
2024/01/29 04:11:37;;;;;;;2.53;1.95;;;10.40;1.00;;;;;;4976213;28;20137;-79
2024/01/29 04:14:03;;;;;;;3.47;2.70;;;10.40;1.00;;;;;;4959180;28;20053;-78
2024/01/29 04:16:31;;;;;;;4.28;2.50;;;10.40;1.00;;;;;;5009261;28;20041;-78
2024/01/29 04:18:58;;;;;;;3.70;2.65;;;10.40;1.00;;;;;;5008236;28;20123;-78
2024/01/29 04:21:25;;;;;;;3.05;2.25;;;10.40;1.00;;;;;;4980752;28;20050;-78
2024/01/29 04:23:52;;;;;;;3.45;2.38;;;10.40;11.40;;;;;;5007458;28;20057;-79
2024/01/29 04:26:20;;;;;;;3.13;2.40;;;10.40;99.90;;;;;;5009169;28;20105;-79
2024/01/29 04:28:47;;;;;;;3.63;2.65;;;10.40;99.90;;;;;;4975457;28;20104;-78
2024/01/29 04:31:14;;;;;;;3.22;2.40;;;10.50;99.90;;;;;;4959073;28;20619;-78
2024/01/29 04:33:42;;;;;;;5.10;2.13;;;10.50;99.90;;;;;;4974669;28;20484;-78
2024/01/29 04:36:13;;;;;;;2.45;1.80;;;10.50;99.90;;;;;;4990974;28;20077;-78
2024/01/29 04:38:43;;;;;;;3.00;1.98;;;10.50;99.90;;;;;;4974464;28;20046;-79
2024/01/29 04:41:19;;;;;;;2.60;2.00;;;10.60;99.90;;;;;;4975398;28;20135;-79
2024/01/29 04:43:46;;;;;;;2.75;2.40;;;10.50;99.90;;;;;;4978317;28;20057;-78
2024/01/29 04:46:13;;;;;;;3.40;2.40;;;10.50;99.90;;;;;;4978578;28;20539;-78
2024/01/29 04:48:40;;;;;;;3.75;2.33;;;10.60;99.90;;;;;;4978044;28;20058;-78
2024/01/29 04:51:07;;;;;;;3.90;2.53;;;10.60;99.90;;;;;;4993811;28;20046;-79
2024/01/29 04:53:35;;;;;;;3.35;2.38;;;10.60;99.90;;;;;;4973694;28;20058;-78
2024/01/29 04:56:03;;;;;;;3.60;2.10;;;10.60;99.90;;;;;;4990936;28;20054;-78
2024/01/29 04:58:30;;;;;;;2.85;1.95;;;10.60;99.90;;;;;;4990447;28;20046;-78
2024/01/29 05:00:58;;;;;;;3.28;2.47;;;10.60;99.90;;;;;;4973826;28;20057;-78
2024/01/29 05:03:26;;;;;;;3.22;2.35;;;10.70;99.90;;;;;;4990796;28;20073;-79
2024/01/29 05:05:53;;;;;;;3.45;2.45;;;10.70;99.90;;;;;;4974631;28;20073;-79
2024/01/29 05:08:20;;;;;;;3.25;2.20;;;10.60;99.90;;;;;;4973016;28;20072;-79
2024/01/29 05:10:47;;;;;;;3.13;2.40;;;10.60;99.90;;;;;;4957395;28;20072;-79
2024/01/29 05:13:17;;;;;;;3.10;2.30;;;10.60;99.90;;;;;;4989494;28;20077;-78
2024/01/29 05:15:44;;;;;;;2.90;2.05;;;10.60;99.90;;;;;;4990381;28;20066;-78
2024/01/29 05:18:11;;;;;;;2.35;1.80;;;10.60;99.90;;;;;;4989799;28;20061;-78
2024/01/29 05:20:38;;;;;;;2.67;1.73;;;10.70;99.90;;;;;;4982121;28;20514;-79
2024/01/29 05:23:06;;;;;;;3.50;1.63;;;10.70;99.90;;;;;;4969121;28;20050;-79
2024/01/29 05:25:33;;;;;;;2.50;1.85;;;10.70;82.80;;;;;;5007061;28;20666;-79
2024/01/29 05:28:00;;;;;;;2.83;1.80;;;10.70;16.10;;;;;;4990004;28;20133;-79
2024/01/29 05:30:27;;;;;;;2.70;2.00;;;10.70;25.70;;;;;;4970742;28;20051;-79
2024/01/29 05:32:54;;;;;;;2.47;1.63;;;10.70;64.70;;;;;;4986919;28;20118;-79
2024/01/29 05:35:22;;;;;;;2.50;1.70;;;10.70;41.50;;;;;;4973808;28;20046;-78
2024/01/29 05:37:48;;;;;;;2.65;1.92;;;10.70;99.90;;;;;;4956079;28;20042;-78
2024/01/29 05:40:15;;;;;;;2.85;1.83;;;10.70;1.00;;;;;;4953767;28;20063;-78
2024/01/29 05:42:42;;;;;;;3.58;2.00;;;10.80;1.00;;;;;;4971475;28;20160;-78
2024/01/29 05:45:09;;;;;;;3.35;2.20;;;10.70;99.90;;;;;;4989583;28;20080;-78
2024/01/29 05:47:37;;;;;;;4.00;2.40;;;10.70;99.90;;;;;;4989275;28;20065;-79
2024/01/29 05:50:05;;;;;;;3.95;2.20;;;10.70;99.90;;;;;;4985930;28;20049;-79
2024/01/29 05:52:33;;;;;;;3.05;2.28;;;10.70;99.90;;;;;;4970583;28;20058;-79
2024/01/29 05:55:00;;;;;;;3.38;2.13;;;10.70;99.90;;;;;;4984357;28;20054;-78
2024/01/29 05:57:28;;;;;;;3.20;2.15;;;10.70;99.90;;;;;;4983139;28;20065;-80
2024/01/29 05:59:55;;;;;;;2.53;2.25;;;10.70;99.90;;;;;;4974203;28;20073;-79
2024/01/29 06:02:22;;;;;;;3.70;2.63;;;10.70;99.90;;;;;;5001244;28;20054;-79
2024/01/29 06:04:49;;;;;;;3.33;2.38;;;10.70;99.90;;;;;;5001578;28;20049;-79
2024/01/29 06:07:16;;;;;;;4.18;2.45;;;10.70;99.90;;;;;;4981577;28;20589;-79
2024/01/29 06:09:43;;;;;;;2.90;2.28;;;10.70;99.90;;;;;;5000492;28;20626;-78
2024/01/29 06:12:09;;;;;;;3.63;2.42;;;10.70;46.20;;;;;;4975934;28;20512;-78
2024/01/29 06:14:36;;;;;;;3.60;2.30;;;10.70;1.70;;;;;;5001259;28;20053;-79
2024/01/29 06:17:03;;;;;;;4.07;2.80;;;10.70;8.10;;;;;;4999080;28;20125;-78
2024/01/29 06:19:30;;;;;;;3.88;2.53;;;10.70;99.90;;;;;;4998482;28;20053;-79
2024/01/29 06:21:57;;;;;;;3.40;2.60;;;10.70;99.90;;;;;;4978881;28;20081;-79
2024/01/29 06:24:25;;;;;;;4.05;2.78;;;10.70;99.90;;;;;;4970408;28;20042;-79
2024/01/29 06:26:51;;;;;;;3.67;3.15;;;10.70;99.90;;;;;;4980811;28;20148;-78
2024/01/29 06:29:18;;;;;;;3.40;2.47;;;10.70;99.90;;;;;;4979789;28;20084;-79
2024/01/29 06:31:45;;;;;;;3.05;2.33;;;10.70;99.90;;;;;;4966108;28;20125;-79
2024/01/29 06:34:12;;;;;;;4.72;2.83;;;10.70;99.90;;;;;;4996756;28;20109;-79
2024/01/29 06:36:39;;;;;;;3.13;2.47;;;10.70;99.90;;;;;;4986307;28;20078;-79
2024/01/29 06:39:07;;;;;;;3.45;2.28;;;10.70;99.90;;;;;;4988953;28;20045;-78
2024/01/29 06:41:34;;;;;;;2.78;2.05;;;10.70;99.90;;;;;;4992557;28;20812;-79
2024/01/29 06:44:02;;;;;;;2.65;2.00;;;10.70;99.90;;;;;;4991997;28;20069;-79
2024/01/29 06:46:28;;;;;;;2.45;2.05;;;10.70;99.90;;;;;;4994482;28;20705;-79
2024/01/29 06:48:55;;;;;;;3.25;2.50;;;10.80;99.90;;;;;;4981851;28;20056;-79
2024/01/29 06:51:23;;;;;;;3.38;2.53;;;10.70;63.20;;;;;;4948825;28;20050;-79
2024/01/29 06:53:50;;;;;;;3.78;2.47;;;10.70;10.60;;;;;;4964082;28;20463;-79
2024/01/29 06:56:17;;;;;;;2.97;2.40;;;10.70;1.00;;;;;;4947842;28;20061;-79
2024/01/29 06:58:45;;;;;;;3.00;2.60;;;10.70;1.00;;;;;;4998292;28;20046;-79
2024/01/29 07:01:12;;;;;;;2.58;1.92;;;10.70;1.00;;;;;;4980379;28;20131;-78
2024/01/29 07:03:39;;;;;;;3.70;2.97;;;10.70;1.00;;;;;;4982221;28;20049;-79
2024/01/29 07:06:06;;;;;;;3.92;2.95;;;10.70;99.90;;;;;;4996422;28;20136;-80
2024/01/29 07:08:33;;;;;;;4.47;3.25;;;10.70;99.90;;;;;;5001236;28;20054;-80
2024/01/29 07:11:00;;;;;;;4.28;3.13;;;10.70;99.90;;;;;;4968001;28;20054;-79
2024/01/29 07:13:27;;;;;;;4.82;3.45;;;10.70;99.90;;;;;;5000625;28;20133;-78
2024/01/29 07:15:54;;;;;;;4.68;3.47;;;10.70;99.90;;;;;;4969886;28;20045;-85
2024/01/29 07:18:23;;;;;;;4.43;2.78;;;10.70;99.90;;;;;;4984009;28;20085;-79
2024/01/29 07:20:50;;;;;;;4.53;3.28;;;10.60;99.90;;;;;;4985843;28;20049;-79
2024/01/29 07:23:17;;;;;;;2.97;2.47;;;10.60;1.00;;;;;;4960218;28;20058;-79
2024/01/29 07:25:44;;;;;;;4.15;3.08;;;10.60;1.00;;;;;;4984202;28;20054;-83
2024/01/29 07:28:12;;;;;;;5.53;4.03;;;10.60;1.00;;;;;;4960090;28;20061;-82
2024/01/29 07:30:39;;;;;;;6.13;4.20;;;10.50;1.00;;;;;;4972762;28;20045;-83
2024/01/29 07:33:07;;;;;;;5.57;3.80;;;10.50;12.30;;;;;;4979744;28;20058;-87
2024/01/29 07:35:34;;;;;;;5.35;4.00;;;10.50;88.30;;;;;;4971908;28;20109;-81
2024/01/29 07:38:01;;;;;;;5.22;3.67;;;10.50;99.90;;;;;;4971994;28;20050;-81
2024/01/29 07:40:28;;;;;;;5.25;3.97;;;10.50;99.90;;;;;;4976379;28;20043;-80
2024/01/29 07:42:55;;;;;;;4.18;3.15;;;10.50;99.90;;;;;;4996118;28;20046;-81
2024/01/29 07:45:22;;;;;;;4.28;3.05;;;10.50;99.90;;;;;;4982533;28;20149;-82
2024/01/29 07:47:49;;;;;;;5.00;3.55;;;10.50;99.90;;;;;;4981633;28;20054;-81
2024/01/29 07:50:16;;;;;;;4.45;3.13;;;10.50;99.90;;;;;;4967473;28;20041;-81
2024/01/29 07:52:43;;;;;;;5.55;3.55;;;10.50;99.90;;;;;;5001689;28;20054;-82
2024/01/29 07:55:10;;;;;;;4.32;3.55;;;10.50;99.90;;;;;;4953388;28;20082;-81
2024/01/29 07:57:40;;;;;;;6.85;4.88;;;10.60;99.90;;;;;;5002500;28;20163;-81
2024/01/29 08:00:07;;;;;;;5.85;4.13;;;10.50;99.90;;;;;;4983975;28;20894;-81
2024/01/29 08:02:34;;;;;;;4.43;3.35;;;10.50;1.00;;;;;;4966156;28;20057;-81
2024/01/29 08:05:01;;;;;;;3.85;3.17;;;10.50;99.90;;;;;;4979607;28;20055;-81
2024/01/29 08:07:28;;;;;;;4.20;3.20;;;10.50;99.90;;;;;;4947528;28;20050;-75
2024/01/29 08:09:55;;;;;;;4.18;2.85;;;10.50;99.90;;;;;;4980070;28;20165;-76
2024/01/29 08:12:22;;;;;;;5.50;2.75;;;10.50;99.90;;;;;;4952632;28;20412;-76
2024/01/29 08:14:49;;;;;;;4.40;3.00;;;10.60;99.90;;;;;;4969148;28;20458;-76
2024/01/29 08:17:16;;;;;;;5.50;3.92;;;10.60;99.90;;;;;;4969169;28;20559;-76
2024/01/29 08:19:43;;;;;;;5.00;3.35;;;10.60;99.90;;;;;;4971397;28;20045;-76
2024/01/29 08:22:10;;;;;;;3.83;2.85;;;10.60;99.90;;;;;;4987830;28;20438;-76
2024/01/29 08:24:37;;;;;;;4.47;3.38;;;10.70;97.90;;;;;;4984214;28;20053;-76
2024/01/29 08:27:04;;;;;;;4.00;2.95;;;10.70;21.70;;;;;;4973028;28;20085;-76
2024/01/29 08:29:31;;;;;;;3.63;2.55;;;10.70;1.00;;;;;;4956678;28;20500;-76
2024/01/29 08:31:58;;;;;;;3.92;3.05;;;10.80;99.90;;;;;;5006211;28;20120;-76
2024/01/29 08:34:27;;;;;;;4.35;2.95;;;10.80;99.90;;;;;;5006351;28;20045;-76
2024/01/29 08:36:54;;;;;;;3.58;2.58;;;10.80;51.10;;;;;;4971895;28;20056;-76
2024/01/29 08:39:21;;;;;;;3.97;2.30;;;10.90;1.00;;;;;;5005576;28;20060;-80
2024/01/29 08:41:48;;;;;;;3.13;2.35;;;11.00;1.00;;;;;;4988274;28;20060;-75
2024/01/29 08:44:15;;;;;;;3.38;2.40;;;11.00;99.90;;;;;;4988453;28;20061;-76
2024/01/29 08:46:42;;;;;;;3.30;2.30;;;11.10;99.90;;;;;;4988388;28;20507;-76
2024/01/29 08:49:09;;;;;;;3.17;2.15;;;11.10;1.00;;;;;;4985304;28;20053;-75
2024/01/29 08:51:36;;;;;;;3.13;2.30;;;11.10;1.00;;;;;;4969488;28;20057;-76
2024/01/29 08:54:03;;;;;;;3.30;2.40;;;11.20;99.90;;;;;;4971599;28;20459;-74
2024/01/29 08:56:31;;;;;;;4.18;2.65;;;11.20;1.00;;;;;;4972608;28;20046;-73
2024/01/29 08:58:58;;;;;;;4.43;2.70;;;11.20;1.00;;;;;;5005570;28;20058;-73
2024/01/29 09:01:25;;;;;;;3.70;2.40;;;11.20;99.90;;;;;;4987932;28;20053;-75
2024/01/29 09:03:52;;;;;;;3.03;2.40;;;11.20;99.90;;;;;;4971551;28;20081;-76
2024/01/29 09:06:19;;;;;;;3.58;2.70;;;11.20;99.90;;;;;;4972222;28;20053;-76
2024/01/29 09:08:46;;;;;;;3.42;2.47;;;11.20;99.90;;;;;;5003897;28;20054;-76
2024/01/29 09:11:13;;;;;;;2.80;2.22;;;11.20;99.90;;;;;;4988379;28;20605;-76
2024/01/29 09:13:40;;;;;;;3.70;2.40;;;11.30;99.90;;;;;;4987068;28;20056;-77
2024/01/29 09:16:08;;;;;;;2.63;1.83;;;11.30;99.90;;;;;;5005724;28;20542;-77
2024/01/29 09:18:35;;;;;;;3.33;2.65;;;11.30;99.90;;;;;;4968345;28;20050;-76
2024/01/29 09:21:02;;;;;;;3.10;2.55;;;11.40;99.90;;;;;;4986299;28;20057;-76
2024/01/29 09:23:29;;;;;;;3.17;2.25;;;11.30;6.30;;;;;;4978375;28;20045;-77
2024/01/29 09:25:56;;;;;;;3.22;2.40;;;11.40;99.90;;;;;;4984460;28;20045;-77
2024/01/29 09:28:24;;;;;;;3.10;2.10;;;11.40;1.00;;;;;;4984930;28;20053;-85
2024/01/29 09:30:50;;;;;;;3.60;2.28;;;11.50;95.20;;;;;;4992232;28;20081;-80
2024/01/29 09:33:19;;;;;;;4.05;1.90;;;11.50;47.40;;;;;;4987071;28;20518;-75
2024/01/29 09:35:48;;;;;;;3.45;2.40;;;11.50;1.00;;;;;;5005166;28;20139;-75
2024/01/29 09:38:16;;;;;;;3.70;2.40;;;11.50;99.90;;;;;;4986037;28;20072;-76
2024/01/29 09:40:44;;;;;;;4.28;2.65;;;11.50;99.90;;;;;;4983399;28;20055;-74
2024/01/29 09:43:12;;;;;;;2.75;2.17;;;11.50;1.00;;;;;;4966663;28;20078;-77
2024/01/29 09:45:40;;;;;;;3.38;1.95;;;11.60;1.00;;;;;;4959024;28;20050;-76
2024/01/29 09:48:08;;;;;;;2.22;1.83;;;11.60;99.90;;;;;;4951364;28;20050;-76
2024/01/29 09:50:37;;;;;;;2.08;1.45;;;11.60;1.00;;;;;;4944006;28;20121;-76
2024/01/29 09:53:04;;;;;;;2.80;1.80;;;11.70;99.90;;;;;;4960406;28;20146;-75
2024/01/29 09:55:31;;;;;;;2.95;1.80;;;11.70;99.90;;;;;;4968032;28;20057;-79
2024/01/29 09:57:58;;;;;;;3.33;2.03;;;11.70;99.90;;;;;;4956943;28;20506;-78
2024/01/29 10:00:25;;;;;;;2.20;1.80;;;11.80;99.90;;;;;;4945359;28;20607;-78
2024/01/29 10:02:54;;;;;;;2.00;1.48;;;11.80;99.90;;;;;;4983247;28;20212;-78
2024/01/29 10:05:22;;;;;;;1.88;1.58;;;11.80;99.90;;;;;;4972385;28;20050;-78
2024/01/29 10:07:49;;;;;;;2.17;1.73;;;11.90;99.90;;;;;;4931913;28;20081;-79
2024/01/29 10:10:18;;;;;;;2.20;1.48;;;12.00;99.90;;;;;;4961400;28;20054;-77
2024/01/29 10:12:45;;;;;;;2.00;1.60;;;12.10;30.00;;;;;;4928885;28;20567;-77
2024/01/29 10:15:12;;;;;;;2.20;1.52;;;12.10;64.40;;;;;;4943839;28;20137;-77
2024/01/29 10:17:39;;;;;;;2.40;1.60;;;12.20;1.00;;;;;;4958793;28;20053;-78
2024/01/29 10:20:18;;;;;;;2.88;2.28;;;12.20;1.00;;;;;;4982398;28;20077;-86
2024/01/29 10:22:45;;;;;;;2.58;1.90;;;12.30;1.00;;;;;;4979636;28;20488;-78
2024/01/29 10:25:14;;;;;;;2.17;1.88;;;12.30;1.00;;;;;;4975302;28;20046;-79
2024/01/29 10:27:42;;;;;;;2.03;1.67;;;12.40;1.00;;;;;;4928730;28;20038;-76
2024/01/29 10:30:09;;;;;;;2.50;1.58;;;12.50;99.90;;;;;;4995373;28;20076;-77
2024/01/29 10:32:36;;;;;;;2.45;1.90;;;12.60;99.90;;;;;;5001828;28;20103;-76
2024/01/29 10:35:03;;;;;;;2.60;1.88;;;12.70;99.90;;;;;;4951780;28;20062;-76
2024/01/29 10:37:32;;;;;;;2.55;1.77;;;12.70;99.90;;;;;;4966555;28;20054;-77
2024/01/29 10:40:00;;;;;;;2.72;1.65;;;12.70;99.90;;;;;;4970722;28;20054;-77
2024/01/29 10:42:28;;;;;;;2.03;1.50;;;12.80;99.90;;;;;;4983960;28;20147;-77
2024/01/29 10:44:59;;;;;;;3.00;1.90;;;12.80;99.90;;;;;;4968352;28;20060;-76
2024/01/29 10:47:30;;;;;;;2.65;2.00;;;12.80;99.90;;;;;;4966938;28;20515;-77
2024/01/29 10:49:57;;;;;;;2.45;1.63;;;12.70;99.90;;;;;;4982857;28;20061;-76
2024/01/29 10:52:24;;;;;;;2.13;1.77;;;12.70;99.90;;;;;;4984649;28;20461;-87
2024/01/29 10:54:51;;;;;;;2.40;1.52;;;12.80;99.90;;;;;;4975120;28;20053;-80
2024/01/29 10:57:20;;;;;;;2.90;2.03;;;12.90;99.90;;;;;;4971860;28;20492;-87
2024/01/29 10:59:47;;;;;;;2.45;1.90;;;12.90;99.90;;;;;;4968347;28;20054;-79
2024/01/29 11:02:14;;;;;;;2.40;1.88;;;12.90;99.90;;;;;;4951308;28;20053;-79
2024/01/29 11:04:43;;;;;;;2.80;2.05;;;13.00;99.90;;;;;;4967017;28;20045;-78
2024/01/29 11:07:20;;;;;;;2.17;1.70;;;13.10;99.90;;;;;;4983292;28;20480;-79
2024/01/29 11:10:05;;;;;;;3.58;1.90;;;13.10;99.90;;;;;;4971476;28;20056;-78
2024/01/29 11:12:32;;;;;;;3.35;2.17;;;13.10;99.90;;;;;;4981813;28;20144;-75
2024/01/29 11:15:05;;;;;;;2.63;2.03;;;13.10;99.90;;;;;;4943540;28;20080;-74
2024/01/29 11:17:32;;;;;;;2.70;2.15;;;13.10;99.90;;;;;;4950977;28;20041;-75
2024/01/29 11:20:04;;;;;;;3.58;2.33;;;13.20;99.90;;;;;;4971538;28;20117;-74
2024/01/29 11:22:37;;;;;;;2.13;1.48;;;13.10;99.90;;;;;;4965294;28;20053;-75
2024/01/29 11:25:11;;;;;;;2.10;1.70;;;13.20;99.90;;;;;;4932522;28;20050;-74
2024/01/29 11:27:39;;;;;;;2.42;1.80;;;13.20;99.90;;;;;;4962631;28;20058;-74
2024/01/29 11:30:20;;;;;;;2.53;1.95;;;13.30;99.90;;;;;;4932217;28;20038;-74
2024/01/29 11:32:48;;;;;;;2.40;1.60;;;13.30;99.90;;;;;;4972431;28;20493;-74
2024/01/29 11:35:21;;;;;;;2.55;1.80;;;13.30;99.90;;;;;;5014931;28;20064;-74
2024/01/29 11:38:11;;;;;;;2.53;1.83;;;13.30;99.90;;;;;;5014414;28;20375;-74
2024/01/29 11:40:40;;;;;;;2.00;1.50;;;13.30;99.90;;;;;;5016907;28;20057;-74
2024/01/29 11:43:20;;;;;;;1.70;1.40;;;13.30;99.90;;;;;;4986075;28;20045;-74
2024/01/29 11:45:52;;;;;;;2.35;1.38;;;13.40;99.90;;;;;;4999304;28;20494;-74
2024/01/29 11:48:20;;;;;;;2.15;1.50;;;13.40;99.90;;;;;;5017525;28;20054;-74
2024/01/29 11:50:49;;;;;;;2.20;1.50;;;13.50;99.90;;;;;;4999105;28;20050;-74
2024/01/29 11:53:16;;;;;;;2.28;1.48;;;13.60;99.90;;;;;;4996020;28;20348;-74
2024/01/29 11:55:46;;;;;;;1.88;1.50;;;13.60;99.90;;;;;;4990236;28;20042;-74
2024/01/29 11:58:15;;;;;;;1.95;1.30;;;13.50;99.90;;;;;;4969980;28;20129;-77
2024/01/29 12:00:43;;;;;;;1.70;1.20;;;13.50;99.90;;;;;;5011352;28;20060;-75
2024/01/29 12:03:11;;;;;;;2.08;1.25;;;13.50;99.90;;;;;;4985322;28;20549;-76
2024/01/29 12:05:38;;;;;;;1.63;1.17;;;13.50;99.90;;;;;;4963766;28;20316;-75
2024/01/29 12:08:16;;;;;;;1.55;1.30;;;13.40;99.90;;;;;;4980641;28;20100;-75
2024/01/29 12:10:44;;;;;;;1.30;0.98;;;13.40;99.90;;;;;;4998253;28;20148;-75
2024/01/29 12:13:14;;;;;;;1.55;1.20;;;13.30;99.90;;;;;;4982383;28;20061;-75
2024/01/29 12:15:41;;;;;;;2.05;1.40;;;13.20;99.90;;;;;;4996562;28;20053;-76
2024/01/29 12:18:22;;;;;;;1.73;1.17;;;13.10;99.90;;;;;;4998125;28;20574;-74
2024/01/29 12:20:49;;;;;;;2.03;1.27;;;13.20;99.90;;;;;;4997494;28;20452;-74
2024/01/29 12:23:21;;;;;;;2.63;1.50;;;13.20;99.90;;;;;;4998509;28;20149;-74
2024/01/29 12:25:53;;;;;;;2.95;1.67;;;13.20;99.90;;;;;;4984012;28;20057;-75
2024/01/29 12:28:21;;;;;;;1.87;1.40;;;13.10;99.90;;;;;;4963642;28;20050;-76
2024/01/29 12:30:58;;;;;;;2.22;1.58;;;13.10;99.90;;;;;;4998411;28;20731;-75
2024/01/29 12:33:29;;;;;;;2.50;1.65;;;13.10;99.90;;;;;;4993036;28;20061;-76
2024/01/29 12:36:13;;;;;;;2.05;1.45;;;13.10;99.90;;;;;;4997079;28;20068;-75
2024/01/29 12:38:40;;;;;;;1.58;1.27;;;13.30;99.90;;;;;;5002762;28;20064;-75
2024/01/29 12:41:08;;;;;;;1.67;1.30;;;13.30;99.90;;;;;;5003891;28;20442;-76
2024/01/29 12:43:36;;;;;;;1.50;1.35;;;13.30;99.90;;;;;;4985228;28;20058;-83
2024/01/29 12:46:09;;;;;;;2.38;1.90;;;13.30;99.90;;;;;;4987423;28;20050;-86
2024/01/29 12:48:36;;;;;;;3.28;1.45;;;13.30;99.90;;;;;;4986805;28;20105;-76
2024/01/29 12:51:05;;;;;;;2.40;1.38;;;13.40;99.90;;;;;;5002486;28;20437;-76